EDFH

Frankfurt Hahn

Airport
ICAO code
EDFH
Summary
ICAO Region
EUR
ICAO Territory
Location

Frankfurt Hahn,

Elevation
1649 ft
Coordinates
49° 56' 55" N , 7° 15' 50" E
KCC
Cfb
Metar
Observation
EDFH 100020Z 07005KT 040V130 CAVOK 19/08 Q1026
Station
Hahn
Date/Time
2022-08-10 00:20:00
Wind direction
70°
Wind speed
05 kts
Lowest cloud amount
clouds and visibility OK
Temperature
19°C
Dew point
8°C
Humidity
48%
QNH
1026 hPa
Weather condition
n/a

Description

International airport serving the district of Rhineland-Palatinate to the west of central Germany. Despite its name, the airport is situated over 120 km (75 mi) to the west of the city of Frankfurt (by road).

Climatology

Temperate Marine climate/Oceanic climate (Köppen climate classification Cfb) - Moderately cool summer and comparatively warm winter.

Runways

Designator Length Width Surface Rops
3/21 3800 45 ASP Yes/Yes

Airport map

Aerial View

SKYbrary Partners:

Safety knowledge contributed by: